createdAt,value
2023-04-25T00:01:10.462Z,22.70
2023-04-25T00:03:39.208Z,17.83
2023-04-25T00:06:07.489Z,21.20
2023-04-25T00:08:34.615Z,19.65
2023-04-25T00:11:02.250Z,22.45
2023-04-25T00:13:29.591Z,20.75
2023-04-25T00:15:57.449Z,22.13
2023-04-25T00:18:24.605Z,20.00
2023-04-25T00:20:51.656Z,27.27
2023-04-25T00:23:18.991Z,22.17
2023-04-25T00:25:46.666Z,22.00
2023-04-25T00:28:13.885Z,20.85
2023-04-25T00:30:41.232Z,22.70
2023-04-25T00:33:08.815Z,22.42
2023-04-25T00:35:36.013Z,19.08
2023-04-25T00:38:03.104Z,21.63
2023-04-25T00:40:30.410Z,21.67
2023-04-25T00:42:57.424Z,18.00
2023-04-25T00:45:24.487Z,18.45
2023-04-25T00:47:51.804Z,19.83
2023-04-25T00:50:18.926Z,22.48
2023-04-25T00:52:46.200Z,18.13
2023-04-25T00:55:13.500Z,20.42
2023-04-25T00:57:40.927Z,19.20
2023-04-25T01:00:08.373Z,16.67
2023-04-25T01:02:36.582Z,17.83
2023-04-25T01:05:04.339Z,22.83
2023-04-25T01:07:31.536Z,21.08
2023-04-25T01:09:58.633Z,19.02
2023-04-25T01:12:25.705Z,18.00
2023-04-25T01:14:52.844Z,16.83
2023-04-25T01:17:20.636Z,16.92
2023-04-25T01:19:49.781Z,18.27
2023-04-25T01:22:17.835Z,15.82
2023-04-25T01:24:45.124Z,15.00
2023-04-25T01:27:12.176Z,15.05
2023-04-25T01:29:39.215Z,16.30
2023-04-25T01:32:06.515Z,16.40
2023-04-25T01:34:33.649Z,16.50
2023-04-25T01:37:00.993Z,17.08
2023-04-25T01:39:28.017Z,17.02
2023-04-25T01:41:56.674Z,14.40
2023-04-25T01:44:24.573Z,14.43
2023-04-25T01:46:51.604Z,14.13
2023-04-25T01:49:18.697Z,13.85
2023-04-25T01:51:45.834Z,11.25
2023-04-25T01:54:12.884Z,10.23
2023-04-25T01:56:40.002Z,10.85
2023-04-25T01:59:07.118Z,11.50
2023-04-25T02:01:34.423Z,9.02
2023-04-25T02:04:01.843Z,14.15
2023-04-25T02:06:29.217Z,12.75
2023-04-25T02:08:56.288Z,13.95
2023-04-25T02:11:23.397Z,10.68
2023-04-25T02:13:50.670Z,15.73
2023-04-25T02:16:18.000Z,14.07
2023-04-25T02:18:45.857Z,13.43
2023-04-25T02:21:12.948Z,14.00
2023-04-25T02:23:40.003Z,11.57
2023-04-25T02:26:07.192Z,10.70
2023-04-25T02:28:34.270Z,10.50
2023-04-25T02:31:01.418Z,10.85
2023-04-25T02:33:28.534Z,9.32
2023-04-25T02:35:56.024Z,12.32
2023-04-25T02:38:23.099Z,11.60
2023-04-25T02:40:50.192Z,13.02
2023-04-25T02:43:17.385Z,10.27
2023-04-25T02:45:44.438Z,12.32
2023-04-25T02:48:11.522Z,12.10
2023-04-25T02:50:38.611Z,10.77
2023-04-25T02:53:05.631Z,11.77
2023-04-25T02:55:32.645Z,14.50
2023-04-25T02:57:59.714Z,9.38
2023-04-25T03:00:26.967Z,14.35
2023-04-25T03:02:54.210Z,14.68
2023-04-25T03:05:21.343Z,15.65
2023-04-25T03:07:48.409Z,11.30
2023-04-25T03:10:15.484Z,16.52
2023-04-25T03:12:42.586Z,12.95
2023-04-25T03:15:09.812Z,13.45
2023-04-25T03:17:36.965Z,14.73
2023-04-25T03:20:05.060Z,16.65
2023-04-25T03:22:32.100Z,20.02
2023-04-25T03:24:59.157Z,14.32
2023-04-25T03:27:26.212Z,13.82
2023-04-25T03:29:53.263Z,20.48
2023-04-25T03:32:20.622Z,13.88
2023-04-25T03:34:47.740Z,21.65
2023-04-25T03:37:14.802Z,15.23
2023-04-25T03:39:41.856Z,14.15
2023-04-25T03:42:08.884Z,14.70
2023-04-25T03:44:35.951Z,16.83
2023-04-25T03:47:02.956Z,16.30
2023-04-25T03:49:30.297Z,18.60
2023-04-25T03:51:57.367Z,10.88
2023-04-25T03:54:24.496Z,16.38
2023-04-25T03:56:51.495Z,20.17
2023-04-25T03:59:18.568Z,14.60
2023-04-25T04:01:45.688Z,12.52
2023-04-25T04:04:12.970Z,16.77
2023-04-25T04:06:40.866Z,17.40
2023-04-25T04:09:11.768Z,11.48
2023-04-25T04:11:39.430Z,13.18
2023-04-25T04:14:06.927Z,14.82
2023-04-25T04:16:34.641Z,10.63
2023-04-25T04:19:01.833Z,9.27
2023-04-25T04:21:28.900Z,13.13
2023-04-25T04:23:55.949Z,10.48
2023-04-25T04:26:26.998Z,13.27
2023-04-25T04:28:55.292Z,11.35
2023-04-25T04:31:23.011Z,13.45
2023-04-25T04:33:50.693Z,10.55
2023-04-25T04:36:20.905Z,8.52
2023-04-25T04:38:48.019Z,8.00
2023-04-25T04:41:15.180Z,9.50
2023-04-25T04:43:42.790Z,12.77
2023-04-25T04:46:11.283Z,23.05
2023-04-25T04:48:41.074Z,12.60
2023-04-25T04:51:08.219Z,9.10
2023-04-25T04:53:35.404Z,14.77
2023-04-25T04:56:02.489Z,13.25
2023-04-25T04:58:30.826Z,12.73
2023-04-25T05:00:57.988Z,16.58
2023-04-25T05:03:25.208Z,12.48
2023-04-25T05:05:52.357Z,9.55
2023-04-25T05:08:19.473Z,13.35
2023-04-25T05:10:46.530Z,13.38
2023-04-25T05:13:13.554Z,8.73
2023-04-25T05:15:40.704Z,12.45
2023-04-25T05:18:07.870Z,14.55
2023-04-25T05:20:35.013Z,14.02
2023-04-25T05:23:02.124Z,14.98
2023-04-25T05:25:29.221Z,12.82
2023-04-25T05:27:57.653Z,14.55
2023-04-25T05:30:24.702Z,11.52
2023-04-25T05:32:51.793Z,14.45
2023-04-25T05:35:19.026Z,14.82
2023-04-25T05:37:46.193Z,11.25
2023-04-25T05:40:13.622Z,6.53
2023-04-25T05:42:40.747Z,8.95
2023-04-25T05:45:07.935Z,11.55
2023-04-25T05:47:35.048Z,10.38
2023-04-25T05:50:02.215Z,9.25
2023-04-25T05:52:29.340Z,10.02
2023-04-25T05:54:56.381Z,9.75
2023-04-25T05:57:26.888Z,10.88
2023-04-25T05:59:54.092Z,9.15
2023-04-25T06:02:22.289Z,9.18
2023-04-25T06:04:52.587Z,10.00
2023-04-25T06:07:20.913Z,12.80
2023-04-25T06:09:48.315Z,8.25
2023-04-25T06:12:15.455Z,9.35
2023-04-25T06:14:42.551Z,9.02
2023-04-25T06:17:09.607Z,10.25
2023-04-25T06:19:37.165Z,15.13
2023-04-25T06:22:04.316Z,9.57
2023-04-25T06:24:31.428Z,13.38
2023-04-25T06:26:58.791Z,8.57
2023-04-25T06:29:25.832Z,13.93
2023-04-25T06:31:53.191Z,13.50
2023-04-25T06:34:20.706Z,15.52
2023-04-25T06:36:47.852Z,10.40
2023-04-25T06:39:14.916Z,13.23
2023-04-25T06:41:42.008Z,10.93
2023-04-25T06:44:09.086Z,11.45
2023-04-25T06:46:37.306Z,13.60
2023-04-25T06:49:04.387Z,11.70
2023-04-25T06:51:31.700Z,10.20
2023-04-25T06:53:58.946Z,10.52
2023-04-25T06:56:26.088Z,8.15
2023-04-25T06:58:53.488Z,11.45
2023-04-25T07:01:20.914Z,12.52
2023-04-25T07:03:48.242Z,9.32
2023-04-25T07:06:15.583Z,9.43
2023-04-25T07:08:42.638Z,11.73
2023-04-25T07:11:09.702Z,13.00
2023-04-25T07:13:37.423Z,10.23
2023-04-25T07:16:04.794Z,11.30
2023-04-25T07:18:31.873Z,10.82
2023-04-25T07:20:58.919Z,12.23
2023-04-25T07:23:25.958Z,10.05
2023-04-25T07:25:53.018Z,9.75
2023-04-25T07:28:20.149Z,9.10
2023-04-25T07:30:47.300Z,10.10
2023-04-25T07:33:14.380Z,11.95
2023-04-25T07:35:41.749Z,8.88
2023-04-25T07:38:08.909Z,11.05
2023-04-25T07:40:36.557Z,9.25
2023-04-25T07:43:03.774Z,7.93
2023-04-25T07:45:31.044Z,9.95
2023-04-25T07:47:58.160Z,14.27
2023-04-25T07:50:25.381Z,8.88
2023-04-25T07:52:52.589Z,9.07
2023-04-25T07:55:19.697Z,8.27
2023-04-25T07:57:46.811Z,8.73
2023-04-25T08:00:14.326Z,8.40
2023-04-25T08:02:41.691Z,8.63
2023-04-25T08:05:12.740Z,10.85
2023-04-25T08:07:40.077Z,8.80
2023-04-25T08:10:07.722Z,7.18
2023-04-25T08:12:34.819Z,9.95
2023-04-25T08:15:02.002Z,8.25
2023-04-25T08:17:29.096Z,8.82
2023-04-25T08:19:56.402Z,7.57
2023-04-25T08:22:23.460Z,10.25
2023-04-25T08:24:50.489Z,8.55
2023-04-25T08:27:17.507Z,7.43
2023-04-25T08:29:44.658Z,10.02
2023-04-25T08:32:11.703Z,11.00
2023-04-25T08:34:40.408Z,7.18
2023-04-25T08:37:07.479Z,7.50
2023-04-25T08:39:34.519Z,6.78
2023-04-25T08:42:03.002Z,9.20
2023-04-25T08:44:31.079Z,6.63
2023-04-25T08:46:58.252Z,6.18
2023-04-25T08:49:25.329Z,6.38
2023-04-25T08:51:52.524Z,8.90
2023-04-25T08:54:34.660Z,5.35
2023-04-25T08:57:03.212Z,6.28
2023-04-25T08:59:30.358Z,8.60
2023-04-25T09:01:57.440Z,3.78
2023-04-25T09:04:24.806Z,8.32
2023-04-25T09:06:51.901Z,7.47
2023-04-25T09:09:19.177Z,7.13
2023-04-25T09:11:46.234Z,5.53
2023-04-25T09:14:16.624Z,7.35
2023-04-25T09:17:00.556Z,7.00
2023-04-25T09:19:40.238Z,6.75
2023-04-25T09:22:08.897Z,4.50
2023-04-25T09:24:44.308Z,4.38
2023-04-25T09:27:11.878Z,6.53
2023-04-25T09:29:43.018Z,4.68
2023-04-25T09:32:17.623Z,7.82
2023-04-25T09:34:45.715Z,8.70
2023-04-25T09:37:12.961Z,10.10
2023-04-25T09:39:40.539Z,6.88
2023-04-25T09:42:07.660Z,4.07
2023-04-25T09:44:34.786Z,8.63
2023-04-25T09:47:02.949Z,8.00
2023-04-25T09:49:29.972Z,7.82
2023-04-25T09:51:57.968Z,7.45
2023-04-25T09:54:28.068Z,5.50
2023-04-25T09:56:55.335Z,12.23
2023-04-25T09:59:23.676Z,6.95
2023-04-25T10:01:53.895Z,9.95
2023-04-25T10:04:23.697Z,10.25
2023-04-25T10:06:54.467Z,6.43
2023-04-25T10:09:22.201Z,5.30
2023-04-25T10:11:49.281Z,3.83
2023-04-25T10:14:16.602Z,5.07
2023-04-25T10:16:44.041Z,8.02
2023-04-25T10:19:12.036Z,5.93
2023-04-25T10:21:46.720Z,7.30
2023-04-25T10:24:13.776Z,7.22
2023-04-25T10:26:40.866Z,4.40
2023-04-25T10:29:08.014Z,7.93
2023-04-25T10:31:35.850Z,8.80
2023-04-25T10:34:03.099Z,10.00
2023-04-25T10:36:32.865Z,7.45
2023-04-25T10:39:01.429Z,7.82
2023-04-25T10:41:29.850Z,8.15
2023-04-25T10:44:03.030Z,7.75
2023-04-25T10:46:33.165Z,7.63
2023-04-25T10:49:00.834Z,11.60
2023-04-25T10:51:54.257Z,8.70
2023-04-25T10:54:22.214Z,8.82
2023-04-25T10:56:50.584Z,5.72
2023-04-25T10:59:19.127Z,10.05
2023-04-25T11:01:47.091Z,10.15
2023-04-25T11:04:31.512Z,6.18
2023-04-25T11:07:37.560Z,8.07
2023-04-25T11:10:05.175Z,7.55
2023-04-25T11:12:32.950Z,9.88
2023-04-25T11:15:02.084Z,9.07
2023-04-25T11:17:29.654Z,7.13
2023-04-25T11:19:57.370Z,6.53
2023-04-25T11:22:24.520Z,10.00
2023-04-25T11:24:52.149Z,8.05
2023-04-25T11:27:19.296Z,10.75
2023-04-25T11:29:49.007Z,7.60
2023-04-25T11:32:18.086Z,7.47
2023-04-25T11:34:46.860Z,6.60
2023-04-25T11:37:14.379Z,6.28
2023-04-25T11:39:45.960Z,8.05
2023-04-25T11:42:13.507Z,7.13
2023-04-25T11:44:41.748Z,6.90
2023-04-25T11:47:09.010Z,8.38
2023-04-25T11:49:36.709Z,9.35
2023-04-25T11:52:03.976Z,9.82
2023-04-25T11:54:31.046Z,15.40
2023-04-25T11:56:58.262Z,9.10
2023-04-25T11:59:26.330Z,9.00
2023-04-25T12:01:53.729Z,9.95
2023-04-25T12:04:21.739Z,11.27
2023-04-25T12:06:49.740Z,10.48
2023-04-25T12:09:18.905Z,10.30
2023-04-25T12:11:49.645Z,7.70
2023-04-25T12:14:25.107Z,8.77
2023-04-25T12:16:52.796Z,8.73
2023-04-25T12:19:20.962Z,7.75
2023-04-25T12:24:19.925Z,7.25
2023-04-25T12:27:03.314Z,8.00
2023-04-25T12:29:34.888Z,9.20
2023-04-25T12:32:09.612Z,16.05
2023-04-25T12:34:37.057Z,8.73
2023-04-25T12:37:04.390Z,6.65
2023-04-25T12:39:31.476Z,13.40
2023-04-25T12:41:59.376Z,9.75
2023-04-25T12:44:26.711Z,11.27
2023-04-25T12:46:53.915Z,8.98
2023-04-25T12:49:20.995Z,7.75
2023-04-25T12:51:48.469Z,9.88
2023-04-25T12:54:15.879Z,9.68
2023-04-25T12:56:43.271Z,9.07
2023-04-25T12:59:10.469Z,9.30
2023-04-25T13:01:37.608Z,6.13
2023-04-25T13:04:05.113Z,8.98
2023-04-25T13:06:32.348Z,6.90
2023-04-25T13:08:59.455Z,6.55
2023-04-25T13:11:26.577Z,6.47
2023-04-25T13:13:54.007Z,8.10
2023-04-25T13:16:24.575Z,7.43
2023-04-25T13:18:51.722Z,12.90
2023-04-25T13:21:18.799Z,9.93
2023-04-25T13:23:47.576Z,7.97
2023-04-25T13:26:14.712Z,8.10
2023-04-25T13:28:43.610Z,7.00
2023-04-25T13:31:11.983Z,6.22
2023-04-25T13:33:39.097Z,7.20
2023-04-25T13:36:06.460Z,8.57
2023-04-25T13:38:33.756Z,11.13
2023-04-25T13:41:01.894Z,12.32
2023-04-25T13:43:29.048Z,6.97
2023-04-25T13:45:56.140Z,8.35
2023-04-25T13:48:23.647Z,5.72
2023-04-25T13:50:50.767Z,11.77
2023-04-25T13:53:17.805Z,8.88
2023-04-25T13:55:44.862Z,8.60
2023-04-25T13:58:12.379Z,9.98
2023-04-25T14:00:40.124Z,9.98
2023-04-25T14:03:10.481Z,9.75
2023-04-25T14:05:41.201Z,8.52
2023-04-25T14:08:09.087Z,13.80
2023-04-25T14:10:36.230Z,8.70
2023-04-25T14:13:04.406Z,9.82
2023-04-25T14:15:34.812Z,5.75
2023-04-25T14:18:02.324Z,6.75
2023-04-25T14:20:29.530Z,15.85
2023-04-25T14:22:58.082Z,8.35
2023-04-25T14:25:25.454Z,8.15
2023-04-25T14:27:52.627Z,8.38
2023-04-25T14:30:19.977Z,6.22
2023-04-25T14:32:47.189Z,8.07
2023-04-25T14:35:14.419Z,11.63
2023-04-25T14:37:41.499Z,8.68
2023-04-25T14:40:11.564Z,7.00
2023-04-25T14:42:38.955Z,7.75
2023-04-25T14:45:07.298Z,7.03
2023-04-25T14:47:34.594Z,10.43
2023-04-25T14:50:02.700Z,10.13
2023-04-25T14:52:30.027Z,7.70
2023-04-25T14:54:57.156Z,6.00
2023-04-25T14:57:24.416Z,9.95
2023-04-25T14:59:51.553Z,11.25
2023-04-25T15:02:18.652Z,10.35
2023-04-25T15:04:46.094Z,11.40
2023-04-25T15:07:13.209Z,7.20
2023-04-25T15:09:40.308Z,7.68
2023-04-25T15:12:07.437Z,9.43
2023-04-25T15:14:34.973Z,10.98
2023-04-25T15:17:02.398Z,5.95
2023-04-25T15:19:29.627Z,6.72
2023-04-25T15:21:56.767Z,8.18
2023-04-25T15:24:23.937Z,7.13
2023-04-25T15:26:51.481Z,9.10
2023-04-25T15:29:18.600Z,5.35
2023-04-25T15:31:45.987Z,12.02
2023-04-25T15:34:13.082Z,7.72
2023-04-25T15:36:40.342Z,7.22
2023-04-25T15:39:07.386Z,8.93
2023-04-25T15:41:34.592Z,5.53
2023-04-25T15:44:01.774Z,9.40
2023-04-25T15:46:31.174Z,7.15
2023-04-25T15:48:58.489Z,7.70
2023-04-25T15:51:25.506Z,6.93
2023-04-25T15:53:52.929Z,7.40
2023-04-25T15:56:20.400Z,11.68
2023-04-25T15:58:47.416Z,7.93
2023-04-25T16:01:15.040Z,8.38
2023-04-25T16:03:42.357Z,6.10
2023-04-25T16:06:09.523Z,8.27
2023-04-25T16:08:36.585Z,6.13
2023-04-25T16:11:03.723Z,6.57
2023-04-25T16:13:30.912Z,7.32
2023-04-25T16:15:58.135Z,8.68
2023-04-25T16:18:25.582Z,5.45
2023-04-25T16:20:52.677Z,10.35
2023-04-25T16:23:19.729Z,7.00
2023-04-25T16:25:46.818Z,7.57
2023-04-25T16:28:13.873Z,5.32
2023-04-25T16:30:41.466Z,6.18
2023-04-25T16:33:08.928Z,8.30
2023-04-25T16:35:36.020Z,6.03
2023-04-25T16:38:03.055Z,8.75
2023-04-25T16:40:30.230Z,5.45
2023-04-25T16:42:57.330Z,6.57
2023-04-25T16:45:24.537Z,8.40
2023-04-25T16:47:51.672Z,6.95
2023-04-25T16:50:19.166Z,6.28
2023-04-25T16:52:46.251Z,4.63
2023-04-25T16:55:13.316Z,3.67
2023-04-25T16:57:40.462Z,7.15
2023-04-25T17:00:13.536Z,7.97
2023-04-25T17:02:40.878Z,11.80
2023-04-25T17:05:08.752Z,7.97
2023-04-25T17:07:35.822Z,8.70
2023-04-25T17:10:03.606Z,6.90
2023-04-25T17:12:30.623Z,5.88
2023-04-25T17:14:57.736Z,11.75
2023-04-25T17:17:26.597Z,5.35
2023-04-25T17:19:53.693Z,6.28
2023-04-25T17:22:21.467Z,3.53
2023-04-25T17:24:48.619Z,5.32
2023-04-25T17:27:15.723Z,6.45
2023-04-25T17:29:42.914Z,17.95
2023-04-25T17:32:10.767Z,6.93
2023-04-25T17:34:39.977Z,2.83
2023-04-25T17:37:09.939Z,3.97
2023-04-25T17:39:37.493Z,5.00
2023-04-25T17:42:04.665Z,3.55
2023-04-25T17:44:31.985Z,7.40
2023-04-25T17:47:01.094Z,5.53
2023-04-25T17:49:28.127Z,5.45
2023-04-25T17:51:55.282Z,8.07
2023-04-25T17:54:22.684Z,3.42
2023-04-25T17:56:49.774Z,9.18
2023-04-25T17:59:17.388Z,5.95
2023-04-25T18:01:47.926Z,6.68
2023-04-25T18:04:15.188Z,5.40
2023-04-25T18:06:42.265Z,5.65
2023-04-25T18:09:23.238Z,4.65
2023-04-25T18:11:51.663Z,6.35
2023-04-25T18:14:20.249Z,10.00
2023-04-25T18:16:47.822Z,7.05
2023-04-25T18:19:24.052Z,4.15
2023-04-25T18:21:54.342Z,4.78
2023-04-25T18:24:22.055Z,4.70
2023-04-25T18:26:49.712Z,4.80
2023-04-25T18:29:29.348Z,8.85
2023-04-25T18:32:00.491Z,3.67
2023-04-25T18:34:27.817Z,9.13
2023-04-25T18:36:56.286Z,5.90
2023-04-25T18:39:27.100Z,7.57
2023-04-25T18:42:01.311Z,4.95
2023-04-25T18:44:33.732Z,6.03
2023-04-25T18:47:01.061Z,3.85
2023-04-25T18:49:28.257Z,5.72
2023-04-25T18:51:57.351Z,4.90
2023-04-25T18:54:24.446Z,3.92
2023-04-25T18:56:51.695Z,4.68
2023-04-25T18:59:18.739Z,5.93
2023-04-25T19:01:45.815Z,3.25
2023-04-25T19:04:13.177Z,4.38
2023-04-25T19:06:40.325Z,5.50
2023-04-25T19:09:08.155Z,8.18
2023-04-25T19:11:35.350Z,3.72
2023-04-25T19:14:02.725Z,5.43
2023-04-25T19:16:29.906Z,3.15
2023-04-25T19:18:57.001Z,3.83
2023-04-25T19:21:24.064Z,7.00
2023-04-25T19:23:54.093Z,7.25
2023-04-25T19:28:49.908Z,6.15
2023-04-25T19:31:17.024Z,3.63
2023-04-25T19:33:46.536Z,8.68
2023-04-25T19:36:13.660Z,5.18
2023-04-25T19:38:40.723Z,3.63
2023-04-25T19:41:07.742Z,4.35
2023-04-25T19:43:34.789Z,5.80
2023-04-25T19:46:01.885Z,3.63
2023-04-25T19:48:28.995Z,12.60
2023-04-25T19:50:56.018Z,5.47
2023-04-25T19:53:23.042Z,5.05
2023-04-25T19:55:50.068Z,6.03
2023-04-25T19:58:17.379Z,5.43
2023-04-25T20:00:44.405Z,5.05
2023-04-25T20:03:12.093Z,5.38
2023-04-25T20:05:39.226Z,6.18
2023-04-25T20:08:06.358Z,6.22
2023-04-25T20:10:33.415Z,5.57
2023-04-25T20:13:01.285Z,7.35
2023-04-25T20:15:28.405Z,6.97
2023-04-25T20:17:55.644Z,3.40
2023-04-25T20:20:22.926Z,6.68
2023-04-25T20:22:50.975Z,4.25
2023-04-25T20:25:17.972Z,7.65
2023-04-25T20:27:45.308Z,3.38
2023-04-25T20:30:12.830Z,9.32
2023-04-25T20:32:40.042Z,4.95
2023-04-25T20:35:08.709Z,6.07
2023-04-25T20:37:35.982Z,4.05
2023-04-25T20:40:05.052Z,8.02
2023-04-25T20:42:32.222Z,5.82
2023-04-25T20:44:59.342Z,4.53
2023-04-25T20:47:26.471Z,4.57
2023-04-25T20:49:53.534Z,6.32
2023-04-25T20:52:20.607Z,5.00
2023-04-25T20:54:50.508Z,6.15
2023-04-25T20:57:17.735Z,4.40
2023-04-25T20:59:44.898Z,3.53
2023-04-25T21:02:12.601Z,6.93
2023-04-25T21:04:39.799Z,5.68
2023-04-25T21:07:06.850Z,5.68
2023-04-25T21:09:33.949Z,4.15
2023-04-25T21:12:01.098Z,7.05
2023-04-25T21:14:28.141Z,6.20
2023-04-25T21:16:55.288Z,7.22
2023-04-25T21:19:22.319Z,4.43
2023-04-25T21:21:49.394Z,5.18
2023-04-25T21:24:16.612Z,3.85
2023-04-25T21:26:43.680Z,5.68
2023-04-25T21:29:10.913Z,6.10
2023-04-25T21:31:38.848Z,3.58
2023-04-25T21:34:07.228Z,4.80
2023-04-25T21:36:34.341Z,8.52
2023-04-25T21:39:01.419Z,5.20
2023-04-25T21:41:28.497Z,4.05
2023-04-25T21:43:55.843Z,7.25
2023-04-25T21:46:24.426Z,3.60
2023-04-25T21:48:51.968Z,5.43
2023-04-25T21:51:19.479Z,5.43
2023-04-25T21:53:46.660Z,4.88
2023-04-25T21:56:13.674Z,4.43
2023-04-25T21:58:40.782Z,5.43
2023-04-25T22:01:07.844Z,7.18
2023-04-25T22:03:35.465Z,8.15
2023-04-25T22:06:03.916Z,4.15
2023-04-25T22:08:31.042Z,4.63
2023-04-25T22:10:58.936Z,6.88
2023-04-25T22:13:28.357Z,4.53
2023-04-25T22:15:55.529Z,5.80
2023-04-25T22:18:22.685Z,6.93
2023-04-25T22:20:49.764Z,7.90
2023-04-25T22:23:17.238Z,5.82
2023-04-25T22:25:44.818Z,7.82
2023-04-25T22:28:12.980Z,7.97
2023-04-25T22:30:40.133Z,5.47
2023-04-25T22:33:07.341Z,6.57
2023-04-25T22:35:34.484Z,4.65
2023-04-25T22:38:01.661Z,5.00
2023-04-25T22:40:28.757Z,11.05
2023-04-25T22:42:55.753Z,6.70
2023-04-25T22:45:22.882Z,5.93
2023-04-25T22:47:50.145Z,7.07
2023-04-25T22:50:17.814Z,6.03
2023-04-25T22:52:44.903Z,8.85
2023-04-25T22:55:13.152Z,13.63
2023-04-25T22:57:40.464Z,8.30
2023-04-25T23:00:19.919Z,10.23
2023-04-25T23:02:47.503Z,8.50
2023-04-25T23:05:15.071Z,6.75
2023-04-25T23:07:42.384Z,10.15
2023-04-25T23:10:09.629Z,10.30
2023-04-25T23:12:36.677Z,7.25
2023-04-25T23:15:05.192Z,9.85
2023-04-25T23:17:32.243Z,7.10
2023-04-25T23:19:59.396Z,8.30
2023-04-25T23:22:26.532Z,8.85
2023-04-25T23:24:53.570Z,9.68
2023-04-25T23:27:20.769Z,6.90
2023-04-25T23:29:54.669Z,6.82
2023-04-25T23:32:22.309Z,8.25
2023-04-25T23:34:49.478Z,9.35
2023-04-25T23:37:16.572Z,16.52
2023-04-25T23:39:52.616Z,10.25
2023-04-25T23:42:19.757Z,6.88
2023-04-25T23:44:46.816Z,7.43
2023-04-25T23:47:17.380Z,12.38
2023-04-25T23:52:11.835Z,10.27
2023-04-25T23:54:38.882Z,7.95
2023-04-25T23:57:06.173Z,8.23
2023-04-25T23:59:33.303Z,7.75
